Weather at Kliepačy Airstrip

Public forecast

Using degrees Celsius for public forecast. Weather courtesy of forecast.io.

Closest aviation weather report (METAR) to Kliepačy Airstrip

Closest report is Brest Airport, 39.9 nm (73.8 km) SSW.

2024/06/17 04:00 (retrieved 29 minutes ago)

UMBB 170400Z 29002MPS 7000 NSC 16/14 Q1012 NOSIG

Closest aviation forecast (TAF) to Kliepačy Airstrip

Forecast is more than 6 hours old.

Closest forecast is Sliač Airport, 315.1 nm (583.7 km) SW.

2024/06/16 18:18 (retrieved 10 hours ago)

TAF LZSL 161630Z 1618/1706 VRB02KT 9999 FEW026 SCT034 TEMPO 1622/1706 1500 BCFG SCT006 PROB40 TEMPO 1701/1706 0200 FG BKN002